Tasman Mariner — VRWW8 — position and weather

sailwx.info

Track history (hours):
 
Tides and Currents Weather Stations Pressure Air Temp Water Temp Dewpoint Dewpoint Depression Visibility Wind Speed Wind Dir Waves Ship Positions

Tasman Mariner

Last reported at 2015-Jun-16 00:00 UTC. Time now 2015-Jul-07 08:54 UTC.
Position S 14°54' E 149°54'.
Warning: this ship's position is 21 days out of date.

Length 184 m; beam 27 m; draft 10 m.

Type: Cargo ship. MMSI: 477860000.

Wind from 100 at 18 knots

Waves 2.0 meters (7 feet), 6 second period

Barometer 1016.3 mb
Visibility: greater than 10.8 NM

Date/timePositionNaut miles runAvg speedWind from/ knotsBaromVisibWave heightAir tempDewpointWater temp
2015-Jun-16 00:00S 14°54' E 149°54'   100 / 181016.310.8 2.0
2015-Jun-13 17:33S 26°34' E 153°16'1111.5
2015-Jun-13 16:33S 26°45' E 153°11'1313.3
2015-Jun-13 15:34S 26°58' E 153°13'1414.4
2015-Jun-13 14:34S 27°11' E 153°21'1313.4
2015-Jun-13 13:33S 27°21' E 153°11'6 0.2
2015-Jun-12 09:33S 27°17' E 153°15'1111.3
2015-Jun-12 08:34S 27°06' E 153°19'1413.5
2015-Jun-12 07:33S 26°55' E 153°11'1111.3
2015-Jun-12 06:33S 26°43' E 153°10'10 9.5
2015-Jun-12 05:33S 26°48' E 153°20'1211.9
2015-Jun-12 04:33S 26°53' E 153°31'1111.2
2015-Jun-12 03:32S 27°03' E 153°38'1212.6
2015-Jun-12 02:34S 27°15' E 153°39'1312.0
2015-Jun-12 01:28S 27°28' E 153°40'1112.2
2015-Jun-12 00:33S 27°39' E 153°40'1212.4
2015-Jun-11 23:33S 27°52' E 153°41'1312.6
2015-Jun-11 22:31S 28°05' E 153°42'26914.0
2015-Jun-11 03:17S 32°28' E 152°38'1013.5
2015-Jun-11 02:33S 32°36' E 152°32'1413.5
2015-Jun-11 01:33S 32°47' E 152°22'1413.6
2015-Jun-11 00:34S 32°58' E 152°13'611.2
2015-Jun-11 00:00S 33°00' E 152°06'1021.9 110 / 101038.810.8 1.018.512.222.0
2015-Jun-10 23:34S 33°09' E 152°04'259 8.0
2015-Jun-09 15:04S 37°11' E 150°11'815.0
2015-Jun-09 14:33S 37°19' E 150°10'1615.2
2015-Jun-09 13:32S 37°34' E 150°04'1616.2
2015-Jun-09 12:33S 37°46' E 149°52'1615.8
2015-Jun-09 11:33S 37°57' E 149°37'2215.3
2015-Jun-09 10:09S 38°09' E 149°14'1114.6
2015-Jun-09 09:22S 38°16' E 149°03'1214.9
2015-Jun-09 08:33S 38°25' E 148°52'7214.4
2015-Jun-09 03:33S 38°60' E 147°32'1514.7
2015-Jun-09 02:33S 39°05' E 147°14'1514.9
2015-Jun-09 01:33S 39°10' E 146°56'1515.1
2015-Jun-09 00:33S 39°15' E 146°38'1515.2
2015-Jun-08 23:33S 39°17' E 146°18'1515.3
2015-Jun-08 22:33S 39°20' E 145°59'1615.1
2015-Jun-08 21:30S 39°23' E 145°39'26 0.5
2015-Jun-06 17:33S 38°56' E 145°40'1414.0
2015-Jun-06 16:34S 39°03' E 145°56'1414.4
2015-Jun-06 15:34S 39°11' E 146°12'1414.1
2015-Jun-06 14:34S 39°09' E 146°30'1615.9
2015-Jun-06 13:33S 39°04' E 146°49'1615.9
2015-Jun-06 12:34S 38°59' E 147°09'1515.3
2015-Jun-06 11:34S 38°54' E 147°27'6414.8
2015-Jun-06 07:14S 38°26' E 148°41'1015.3
2015-Jun-06 06:34S 38°20' E 148°52'1915.3
2015-Jun-06 05:20S 38°09' E 149°11'1315.3
2015-Jun-06 04:29S 38°01' E 149°24'1614.7
2015-Jun-06 03:22S 37°51' E 149°41'1113.9
2015-Jun-06 02:33S 37°45' E 149°52'1615.1
2015-Jun-06 01:31S 37°35' E 150°08'1415.0
2015-Jun-06 00:33S 37°21' E 150°12'  
Track history (hours):
 
Tides and Currents Weather Stations Pressure Air Temp Water Temp Dewpoint Dewpoint Depression Visibility Wind Speed Wind Dir Waves Ship Positions

Tasman Mariner

Last reported at 2015-Jun-16 00:00 UTC. Time now 2015-Jul-07 08:54 UTC.
Position S 14°54' E 149°54'.
Warning: this ship's position is 21 days out of date.

Length 184 m; beam 27 m; draft 10 m.

Type: Cargo ship. MMSI: 477860000.

Wind from 100 at 18 knots

Waves 2.0 meters (7 feet), 6 second period

Barometer 1016.3 mb
Visibility: greater than 10.8 NM

Date/timePositionNaut miles runAvg speedWind from/ knotsBaromVisibWave heightAir tempDewpointWater temp
2015-Jun-16 00:00S 14°54' E 149°54'   100 / 181016.310.8 2.0
2015-Jun-13 17:33S 26°34' E 153°16'1111.5
2015-Jun-13 16:33S 26°45' E 153°11'1313.3
2015-Jun-13 15:34S 26°58' E 153°13'1414.4
2015-Jun-13 14:34S 27°11' E 153°21'1313.4
2015-Jun-13 13:33S 27°21' E 153°11'6 0.2
2015-Jun-12 09:33S 27°17' E 153°15'1111.3
2015-Jun-12 08:34S 27°06' E 153°19'1413.5
2015-Jun-12 07:33S 26°55' E 153°11'1111.3
2015-Jun-12 06:33S 26°43' E 153°10'10 9.5
2015-Jun-12 05:33S 26°48' E 153°20'1211.9
2015-Jun-12 04:33S 26°53' E 153°31'1111.2
2015-Jun-12 03:32S 27°03' E 153°38'1212.6
2015-Jun-12 02:34S 27°15' E 153°39'1312.0
2015-Jun-12 01:28S 27°28' E 153°40'1112.2
2015-Jun-12 00:33S 27°39' E 153°40'1212.4
2015-Jun-11 23:33S 27°52' E 153°41'1312.6
2015-Jun-11 22:31S 28°05' E 153°42'26914.0
2015-Jun-11 03:17S 32°28' E 152°38'1013.5
2015-Jun-11 02:33S 32°36' E 152°32'1413.5
2015-Jun-11 01:33S 32°47' E 152°22'1413.6
2015-Jun-11 00:34S 32°58' E 152°13'611.2
2015-Jun-11 00:00S 33°00' E 152°06'1021.9 110 / 101038.810.8 1.018.512.222.0
2015-Jun-10 23:34S 33°09' E 152°04'259 8.0
2015-Jun-09 15:04S 37°11' E 150°11'815.0
2015-Jun-09 14:33S 37°19' E 150°10'1615.2
2015-Jun-09 13:32S 37°34' E 150°04'1616.2
2015-Jun-09 12:33S 37°46' E 149°52'1615.8
2015-Jun-09 11:33S 37°57' E 149°37'2215.3
2015-Jun-09 10:09S 38°09' E 149°14'1114.6
2015-Jun-09 09:22S 38°16' E 149°03'1214.9
2015-Jun-09 08:33S 38°25' E 148°52'7214.4
2015-Jun-09 03:33S 38°60' E 147°32'1514.7
2015-Jun-09 02:33S 39°05' E 147°14'1514.9
2015-Jun-09 01:33S 39°10' E 146°56'1515.1
2015-Jun-09 00:33S 39°15' E 146°38'1515.2
2015-Jun-08 23:33S 39°17' E 146°18'1515.3
2015-Jun-08 22:33S 39°20' E 145°59'1615.1
2015-Jun-08 21:30S 39°23' E 145°39'26 0.5
2015-Jun-06 17:33S 38°56' E 145°40'1414.0
2015-Jun-06 16:34S 39°03' E 145°56'1414.4
2015-Jun-06 15:34S 39°11' E 146°12'1414.1
2015-Jun-06 14:34S 39°09' E 146°30'1615.9
2015-Jun-06 13:33S 39°04' E 146°49'1615.9
2015-Jun-06 12:34S 38°59' E 147°09'1515.3
2015-Jun-06 11:34S 38°54' E 147°27'6414.8
2015-Jun-06 07:14S 38°26' E 148°41'1015.3
2015-Jun-06 06:34S 38°20' E 148°52'1915.3
2015-Jun-06 05:20S 38°09' E 149°11'1315.3
2015-Jun-06 04:29S 38°01' E 149°24'1614.7
2015-Jun-06 03:22S 37°51' E 149°41'1113.9
2015-Jun-06 02:33S 37°45' E 149°52'1615.1
2015-Jun-06 01:31S 37°35' E 150°08'1415.0
2015-Jun-06 00:33S 37°21' E 150°12'  

Dump ship's entire track history